Time;durP1;ratioP1;P1;durP2;ratioP2;P2;SDS_P1;SDS_P2;PMS_P1;PMS_P2;Temp;Humidity;BMP_temperature;BMP_pressure;BME280_temperature;BME280_humidity;BME280_pressure;Samples;Min_cycle;Max_cycle;Signal;HPM_P1;HPM_P2
2022/12/01 00:01:37;;;;;;;8.55;5.95;;;24.30;56.90;;;;;;4082696;29;20042;-38
2022/12/01 00:03:59;;;;;;;7.85;5.70;;;24.40;57.10;;;;;;4078177;28;20726;-38
2022/12/01 00:06:22;;;;;;;12.32;6.07;;;24.40;57.10;;;;;;4081681;29;20512;-38
2022/12/01 00:11:26;;;;;;;10.07;5.78;;;24.50;57.10;;;;;;4077946;29;20518;-39
2022/12/01 00:13:49;;;;;;;8.65;5.38;;;24.50;57.40;;;;;;4074822;28;20043;-38
2022/12/01 00:16:14;;;;;;;6.38;4.88;;;24.60;57.30;;;;;;4081781;28;20471;-38
2022/12/01 00:18:36;;;;;;;8.20;5.10;;;24.60;57.30;;;;;;4078204;29;20542;-40
2022/12/01 00:20:59;;;;;;;4.88;3.88;;;24.60;57.10;;;;;;4078328;28;20032;-38
2022/12/01 00:23:22;;;;;;;5.55;4.20;;;24.70;57.10;;;;;;4083826;29;20035;-38
2022/12/01 00:25:44;;;;;;;5.97;3.90;;;24.70;57.10;;;;;;4079530;29;20185;-38
2022/12/01 00:28:07;;;;;;;5.95;3.80;;;24.70;57.10;;;;;;4085107;28;20043;-38
2022/12/01 00:30:30;;;;;;;4.28;3.55;;;24.70;57.00;;;;;;4078751;29;20128;-39
2022/12/01 00:32:52;;;;;;;5.90;3.22;;;24.70;57.00;;;;;;4079482;29;20498;-38
2022/12/01 00:35:16;;;;;;;4.75;3.78;;;24.70;57.00;;;;;;4083381;29;20050;-39
2022/12/01 00:37:39;;;;;;;5.07;3.60;;;24.80;56.90;;;;;;4078279;29;20042;-38
2022/12/01 00:40:02;;;;;;;4.78;2.83;;;24.80;57.10;;;;;;4083847;29;20054;-40
2022/12/01 00:42:25;;;;;;;;;;;24.80;57.20;;;;;;4087690;28;20035;-38
2022/12/01 00:44:47;;;;;;;4.82;2.60;;;24.80;57.10;;;;;;4089927;28;20381;-39
2022/12/01 00:47:10;;;;;;;3.53;2.40;;;24.90;57.10;;;;;;4086547;28;20082;-37
2022/12/01 00:49:32;;;;;;;3.00;2.40;;;24.90;57.00;;;;;;4086575;28;20066;-37
2022/12/01 00:51:55;;;;;;;5.28;2.45;;;24.90;56.90;;;;;;4092322;28;20039;-38
2022/12/01 00:54:18;;;;;;;4.65;2.42;;;24.90;56.90;;;;;;4083688;28;20120;-39
2022/12/01 00:56:40;;;;;;;3.92;2.35;;;25.00;56.90;;;;;;4079135;29;20070;-39
2022/12/01 00:59:03;;;;;;;5.45;2.30;;;25.00;56.80;;;;;;4075896;29;20067;-38
2022/12/01 01:01:26;;;;;;;3.25;2.00;;;25.00;56.70;;;;;;4074768;29;20039;-40
2022/12/01 01:03:48;;;;;;;2.35;1.73;;;25.00;56.60;;;;;;4080305;28;20062;-39
2022/12/01 01:06:12;;;;;;;2.80;1.80;;;25.00;56.60;;;;;;4085633;28;20105;-39
2022/12/01 01:08:35;;;;;;;3.67;2.10;;;25.00;56.60;;;;;;4084290;28;20151;-37
2022/12/01 01:11:00;;;;;;;4.65;1.90;;;25.00;56.50;;;;;;4084173;28;20039;-37
2022/12/01 01:13:22;;;;;;;3.15;1.80;;;25.10;56.40;;;;;;4082992;28;20043;-38
2022/12/01 01:15:45;;;;;;;5.45;2.03;;;25.10;56.20;;;;;;4079380;29;20447;-38
2022/12/01 01:18:08;;;;;;;4.63;1.80;;;25.10;55.90;;;;;;4079257;28;20578;-36
2022/12/01 01:20:31;;;;;;;2.35;1.63;;;25.10;55.70;;;;;;4082346;29;20555;-35
2022/12/01 01:22:54;;;;;;;8.85;1.73;;;25.10;55.80;;;;;;4083333;28;20130;-36
2022/12/01 01:25:16;;;;;;;1.77;1.17;;;25.10;55.80;;;;;;4078313;28;20043;-38
2022/12/01 01:27:39;;;;;;;3.40;1.80;;;25.10;55.80;;;;;;4083735;28;20039;-37
2022/12/01 01:30:02;;;;;;;2.25;1.55;;;25.10;55.80;;;;;;4084290;28;20578;-37
2022/12/01 01:32:24;;;;;;;2.75;1.42;;;25.20;56.00;;;;;;4082416;28;20435;-39
2022/12/01 01:34:47;;;;;;;2.63;1.25;;;25.20;55.80;;;;;;4077338;29;20036;-35
2022/12/01 01:37:09;;;;;;;5.95;1.50;;;25.20;55.80;;;;;;4078166;29;20058;-36
2022/12/01 01:39:32;;;;;;;4.25;1.73;;;25.20;55.50;;;;;;4078050;28;20034;-37
2022/12/01 01:41:54;;;;;;;6.88;1.63;;;25.20;55.50;;;;;;4076956;29;20047;-37
2022/12/01 01:44:44;;;;;;;3.15;1.40;;;25.20;55.60;;;;;;4074262;29;20464;-35
2022/12/01 01:47:07;;;;;;;5.07;1.75;;;25.20;55.70;;;;;;4078787;28;20086;-35
2022/12/01 01:49:29;;;;;;;4.18;1.80;;;25.20;55.70;;;;;;4073903;29;20046;-36
2022/12/01 01:51:55;;;;;;;3.20;1.70;;;25.20;55.70;;;;;;4079256;29;20046;-36
2022/12/01 01:54:26;;;;;;;5.10;1.30;;;25.20;55.80;;;;;;4078192;28;20122;-36
2022/12/01 01:56:50;;;;;;;4.93;1.50;;;25.20;55.80;;;;;;4078833;29;20074;-35
2022/12/01 01:59:18;;;;;;;3.90;1.50;;;25.20;55.80;;;;;;4075136;29;20523;-36
2022/12/01 02:01:40;;;;;;;5.68;1.58;;;25.20;55.80;;;;;;4078468;29;20046;-35
2022/12/01 02:04:03;;;;;;;4.40;2.03;;;25.30;55.90;;;;;;4072962;28;20428;-35
2022/12/01 02:06:26;;;;;;;3.67;1.63;;;25.30;55.80;;;;;;4074840;28;20068;-36
2022/12/01 02:08:49;;;;;;;9.05;1.70;;;25.30;55.80;;;;;;4081485;29;20051;-37
2022/12/01 02:11:18;;;;;;;13.65;1.58;;;25.30;55.70;;;;;;4071830;29;20052;-37
2022/12/01 02:13:46;;;;;;;3.55;1.25;;;25.30;56.10;;;;;;4081003;28;20407;-40
2022/12/01 02:16:12;;;;;;;2.80;1.30;;;25.30;55.40;;;;;;4082599;28;20039;-39
2022/12/01 02:18:52;;;;;;;2.00;1.10;;;25.30;55.30;;;;;;4077209;29;20046;-37
2022/12/01 02:21:21;;;;;;;3.63;1.27;;;25.30;55.50;;;;;;4081877;29;20043;-36
2022/12/01 02:24:23;;;;;;;2.70;1.33;;;25.40;55.80;;;;;;4080563;29;20049;-38
2022/12/01 02:26:45;;;;;;;2.97;1.15;;;25.40;56.00;;;;;;4081112;28;20109;-39
2022/12/01 02:29:33;;;;;;;2.55;1.02;;;25.40;56.20;;;;;;4081886;28;20038;-39
2022/12/01 02:32:11;;;;;;;3.83;1.38;;;25.40;56.30;;;;;;4080873;28;20619;-37
2022/12/01 02:34:59;;;;;;;1.90;1.00;;;25.40;56.30;;;;;;4085062;29;20039;-37
2022/12/01 02:37:46;;;;;;;2.30;1.10;;;25.50;56.50;;;;;;4084154;29;20121;-37
2022/12/01 02:40:12;;;;;;;2.60;0.90;;;25.50;56.20;;;;;;4082681;28;20041;-38
2022/12/01 02:42:53;;;;;;;2.72;1.00;;;25.60;56.10;;;;;;4080583;28;20491;-39
2022/12/01 02:45:26;;;;;;;2.13;0.90;;;25.60;56.00;;;;;;4085525;29;20043;-40
2022/12/01 02:47:51;;;;;;;2.95;1.20;;;25.60;55.90;;;;;;4077719;28;20087;-38
2022/12/01 02:50:14;;;;;;;2.28;1.00;;;25.60;55.90;;;;;;4085598;28;20039;-38
2022/12/01 02:52:39;;;;;;;1.35;0.73;;;25.60;56.00;;;;;;4085454;29;20039;-38
2022/12/01 02:55:02;;;;;;;2.10;0.90;;;25.60;55.90;;;;;;4080670;28;20098;-38
2022/12/01 02:57:25;;;;;;;1.98;0.85;;;25.70;56.00;;;;;;4085935;28;20388;-38
2022/12/01 02:59:51;;;;;;;0.80;0.80;;;25.70;56.00;;;;;;4085542;28;20035;-37
2022/12/01 03:02:47;;;;;;;4.07;1.15;;;25.70;55.90;;;;;;4079843;29;20039;-36
2022/12/01 03:05:18;;;;;;;2.15;1.10;;;25.70;56.00;;;;;;4080864;28;20047;-38
2022/12/01 03:08:20;;;;;;;3.33;1.08;;;25.70;55.80;;;;;;4082645;28;20051;-36
2022/12/01 03:10:52;;;;;;;1.15;0.70;;;25.80;55.80;;;;;;4083576;29;20459;-37
2022/12/01 03:13:38;;;;;;;2.03;0.77;;;25.80;55.70;;;;;;4082932;28;20066;-38
2022/12/01 03:16:24;;;;;;;1.38;0.80;;;25.80;55.70;;;;;;4085642;28;20115;-40
2022/12/01 03:19:02;;;;;;;2.83;0.88;;;25.80;55.80;;;;;;4083004;28;20024;-38
2022/12/01 03:21:32;;;;;;;1.95;0.77;;;25.90;55.80;;;;;;4081412;28;20118;-37
2022/12/01 03:24:10;;;;;;;0.60;0.43;;;25.90;55.70;;;;;;4080917;28;20039;-37
2022/12/01 03:26:35;;;;;;;2.22;0.85;;;25.90;55.70;;;;;;4084172;28;20042;-41
2022/12/01 03:29:22;;;;;;;2.22;0.70;;;26.00;55.60;;;;;;4085757;28;20046;-38
2022/12/01 03:31:49;;;;;;;2.72;0.90;;;26.00;55.50;;;;;;4077818;28;20047;-38
2022/12/01 03:34:48;;;;;;;1.38;0.50;;;26.00;55.40;;;;;;4084579;29;20475;-39
2022/12/01 03:37:27;;;;;;;1.85;0.80;;;26.00;55.50;;;;;;4083209;28;20514;-39
2022/12/01 03:39:53;;;;;;;2.47;0.70;;;26.00;55.40;;;;;;4086323;28;20047;-38
2022/12/01 03:42:23;;;;;;;1.27;0.65;;;26.10;55.40;;;;;;4079700;29;20040;-37
2022/12/01 03:44:55;;;;;;;2.17;0.75;;;26.10;55.40;;;;;;4084562;28;20047;-37
2022/12/01 03:47:34;;;;;;;4.72;0.80;;;26.10;55.30;;;;;;4081599;28;20406;-39
2022/12/01 03:49:58;;;;;;;4.30;0.93;;;26.20;55.20;;;;;;4081834;28;20051;-38
2022/12/01 03:52:28;;;;;;;;;;;26.10;55.10;;;;;;4082769;28;20050;-37
2022/12/01 03:55:17;;;;;;;2.50;0.70;;;26.20;55.10;;;;;;4074562;28;20381;-39
2022/12/01 03:57:49;;;;;;;0.73;0.40;;;26.20;55.20;;;;;;4076221;29;20055;-37
2022/12/01 04:00:14;;;;;;;1.05;0.52;;;26.20;55.10;;;;;;4072279;28;20036;-37
2022/12/01 04:02:37;;;;;;;0.68;0.45;;;26.20;55.00;;;;;;4077240;28;20039;-38
2022/12/01 04:04:59;;;;;;;1.42;0.80;;;26.30;55.10;;;;;;4074187;28;20448;-39
2022/12/01 04:07:23;;;;;;;1.60;0.73;;;26.30;55.10;;;;;;4074865;28;20383;-37
2022/12/01 04:09:46;;;;;;;1.15;0.60;;;26.30;55.00;;;;;;4077295;29;20411;-38
2022/12/01 04:12:31;;;;;;;2.17;0.88;;;26.30;55.00;;;;;;4070179;28;20696;-38
2022/12/01 04:14:57;;;;;;;3.60;0.93;;;26.30;54.90;;;;;;4080814;28;20035;-37
2022/12/01 04:17:20;;;;;;;1.25;0.68;;;26.30;55.00;;;;;;4081029;28;20051;-38
2022/12/01 04:19:42;;;;;;;2.35;0.60;;;26.30;54.90;;;;;;4080237;28;20039;-37
2022/12/01 04:22:05;;;;;;;1.27;0.80;;;26.30;54.90;;;;;;4080087;28;20046;-39
2022/12/01 04:24:28;;;;;;;3.03;0.85;;;26.30;54.80;;;;;;4067790;29;20031;-39
2022/12/01 04:26:50;;;;;;;2.70;0.60;;;26.40;54.80;;;;;;4079568;28;20135;-36
2022/12/01 04:29:13;;;;;;;1.65;0.50;;;26.40;54.70;;;;;;4071428;29;20546;-38
2022/12/01 04:31:36;;;;;;;1.95;0.85;;;26.40;54.60;;;;;;4074315;29;20381;-37
2022/12/01 04:33:59;;;;;;;2.22;0.70;;;26.40;54.50;;;;;;4074451;28;20480;-41
2022/12/01 04:36:23;;;;;;;9.52;0.90;;;26.40;54.50;;;;;;4056931;29;20417;-38
2022/12/01 04:38:45;;;;;;;;;;;26.40;54.50;;;;;;4070030;29;20122;-38
2022/12/01 04:41:12;;;;;;;2.53;1.02;;;26.40;54.70;;;;;;4068650;28;20712;-39
2022/12/01 04:43:35;;;;;;;2.10;0.60;;;26.40;54.60;;;;;;4054137;29;20040;-47
2022/12/01 04:45:57;;;;;;;2.50;0.63;;;26.40;54.60;;;;;;4064351;29;20114;-37
2022/12/01 04:48:20;;;;;;;3.58;0.60;;;26.40;54.50;;;;;;4066615;28;20050;-36
2022/12/01 04:50:42;;;;;;;4.90;0.75;;;26.40;54.40;;;;;;4067509;29;20047;-37
2022/12/01 04:53:05;;;;;;;1.85;0.65;;;26.50;54.40;;;;;;4076622;29;20037;-38
2022/12/01 04:55:28;;;;;;;2.33;0.60;;;26.50;54.40;;;;;;4067934;28;20036;-37
2022/12/01 04:57:50;;;;;;;3.55;0.90;;;26.50;54.30;;;;;;4071738;29;20459;-37
2022/12/01 05:00:14;;;;;;;1.05;0.85;;;26.50;54.20;;;;;;4071002;28;20031;-37
2022/12/01 05:02:36;;;;;;;2.40;0.90;;;26.50;54.10;;;;;;4069586;29;20604;-38
2022/12/01 05:04:59;;;;;;;2.03;0.73;;;26.60;54.20;;;;;;4069548;28;20043;-36
2022/12/01 05:07:21;;;;;;;1.38;0.65;;;26.60;54.20;;;;;;4075181;29;20111;-37
2022/12/01 05:09:44;;;;;;;5.57;1.10;;;26.60;54.20;;;;;;4076310;28;20035;-37
2022/12/01 05:12:06;;;;;;;3.45;0.57;;;26.60;54.10;;;;;;4079477;29;20443;-37
2022/12/01 05:14:29;;;;;;;3.92;0.73;;;26.60;54.20;;;;;;4080319;28;20047;-37
2022/12/01 05:16:53;;;;;;;2.33;0.60;;;26.60;54.10;;;;;;4069735;28;20039;-41
2022/12/01 05:21:56;;;;;;;5.57;1.00;;;26.60;54.00;;;;;;4071334;28;20454;-40
2022/12/01 05:24:20;;;;;;;4.10;1.00;;;26.70;54.10;;;;;;4071883;29;20039;-37
2022/12/01 05:26:46;;;;;;;3.03;0.70;;;26.70;54.00;;;;;;4068314;28;20063;-36
2022/12/01 05:29:09;;;;;;;8.50;1.17;;;26.70;54.00;;;;;;4051043;29;20036;-37
2022/12/01 05:31:32;;;;;;;3.20;1.15;;;26.70;53.80;;;;;;4069973;28;20597;-39
2022/12/01 05:33:54;;;;;;;5.87;0.77;;;26.70;54.00;;;;;;4068088;29;21344;-38
2022/12/01 05:36:17;;;;;;;5.38;0.70;;;26.70;53.90;;;;;;4068577;28;20048;-38
2022/12/01 05:38:39;;;;;;;8.90;1.38;;;26.70;53.90;;;;;;4067393;28;20554;-38
2022/12/01 05:41:02;;;;;;;5.78;0.75;;;26.80;53.90;;;;;;4067098;28;20358;-37
2022/12/01 05:43:25;;;;;;;4.25;1.10;;;26.80;53.80;;;;;;4071511;29;20122;-37
2022/12/01 05:45:48;;;;;;;4.90;1.10;;;26.80;53.80;;;;;;4073050;29;20781;-36
2022/12/01 05:48:10;;;;;;;;;;;26.80;53.70;;;;;;4071153;28;20472;-41
2022/12/01 05:50:37;;;;;;;2.13;0.80;;;26.80;53.70;;;;;;4059255;29;19915;-38
2022/12/01 05:55:05;;;;;;;2.92;0.88;;;26.80;53.60;;;;;;4106182;28;20122;-42
2022/12/01 05:57:28;;;;;;;2.20;0.70;;;26.80;53.70;;;;;;4114088;28;20118;-42
2022/12/01 05:59:50;;;;;;;5.07;0.95;;;26.80;53.70;;;;;;4111771;28;20402;-44
2022/12/01 06:02:13;;;;;;;5.22;0.60;;;26.90;53.70;;;;;;4110558;28;20038;-43
2022/12/01 06:04:35;;;;;;;3.13;0.98;;;26.90;53.80;;;;;;4114716;28;20355;-42
2022/12/01 06:06:58;;;;;;;3.10;0.63;;;26.80;53.70;;;;;;4110212;28;20058;-42
2022/12/01 06:09:20;;;;;;;2.13;0.68;;;26.80;53.70;;;;;;4115078;28;20039;-46
2022/12/01 06:11:43;;;;;;;4.70;0.95;;;26.80;53.60;;;;;;4114360;28;20097;-45
2022/12/01 06:14:05;;;;;;;2.25;1.02;;;26.80;53.50;;;;;;4112254;28;20050;-42
2022/12/01 06:16:28;;;;;;;3.83;0.50;;;26.80;53.50;;;;;;4117308;28;20038;-43
2022/12/01 06:18:50;;;;;;;2.67;0.73;;;26.90;53.50;;;;;;4113411;28;20428;-46
2022/12/01 06:21:13;;;;;;;2.63;1.05;;;26.90;53.50;;;;;;4113113;28;20051;-44
2022/12/01 06:23:35;;;;;;;2.72;0.77;;;26.90;53.50;;;;;;4109634;28;20053;-43
2022/12/01 06:26:01;;;;;;;3.72;0.75;;;26.90;53.50;;;;;;4126937;23;20136;-73
2022/12/01 06:28:24;;;;;;;3.10;0.60;;;26.90;53.80;;;;;;4096294;28;20047;-72
2022/12/01 06:30:46;;;;;;;6.07;0.98;;;26.90;53.60;;;;;;4109389;28;20081;-73
2022/12/01 06:33:09;;;;;;;8.57;1.00;;;26.90;53.60;;;;;;4117682;28;20046;-76
2022/12/01 06:35:32;;;;;;;12.77;1.17;;;26.90;53.60;;;;;;4114847;28;20035;-73
2022/12/01 06:37:54;;;;;;;5.88;1.13;;;26.90;53.60;;;;;;4114835;28;20368;-71
2022/12/01 06:40:17;;;;;;;5.15;0.70;;;26.90;53.50;;;;;;4116158;28;20035;-73
2022/12/01 06:42:40;;;;;;;9.98;1.33;;;26.90;53.50;;;;;;4112505;28;20058;-73
2022/12/01 06:45:02;;;;;;;4.03;1.20;;;26.90;53.50;;;;;;4116007;28;20045;-71
2022/12/01 06:47:25;;;;;;;3.67;0.82;;;26.90;53.40;;;;;;4119658;28;20084;-74
2022/12/01 06:49:47;;;;;;;7.18;1.00;;;26.80;53.30;;;;;;4114557;28;20727;-73
2022/12/01 06:52:10;;;;;;;2.33;0.75;;;26.90;53.40;;;;;;4102887;28;20126;-72
2022/12/01 06:54:33;;;;;;;4.22;1.10;;;26.90;53.40;;;;;;4107438;28;20045;-72
2022/12/01 06:56:57;;;;;;;4.45;1.17;;;26.80;53.40;;;;;;4125427;28;20088;-71
2022/12/01 06:59:19;;;;;;;4.57;1.10;;;26.80;53.40;;;;;;4124653;28;20038;-72
2022/12/01 07:01:42;;;;;;;6.72;1.90;;;26.80;53.40;;;;;;4120602;28;20040;-73
2022/12/01 07:04:04;;;;;;;22.05;6.93;;;26.90;53.50;;;;;;4122787;28;20047;-73
2022/12/01 07:06:30;;;;;;;15.48;5.15;;;26.80;51.40;;;;;;4111981;28;20051;-72
2022/12/01 07:08:53;;;;;;;12.98;4.20;;;26.80;49.60;;;;;;4125562;28;20551;-71
2022/12/01 07:11:16;;;;;;;11.65;3.83;;;26.80;50.10;;;;;;4125796;28;20070;-72
2022/12/01 07:13:39;;;;;;;11.27;3.65;;;26.70;50.00;;;;;;4116988;28;20038;-72
2022/12/01 07:16:09;;;;;;;8.05;3.13;;;26.70;50.10;;;;;;4122587;28;20034;-72
2022/12/01 07:18:32;;;;;;;9.23;3.45;;;26.70;50.30;;;;;;4116061;28;20045;-74
2022/12/01 07:21:07;;;;;;;9.77;3.72;;;26.70;50.20;;;;;;4126499;28;20144;-73
2022/12/01 07:23:30;;;;;;;9.85;4.22;;;26.70;50.20;;;;;;4112981;28;20038;-74
2022/12/01 07:29:19;;;;;;;9.13;3.75;;;26.60;50.10;;;;;;4091519;29;20055;-71
2022/12/01 07:31:42;;;;;;;6.80;3.63;;;26.60;50.00;;;;;;4091431;29;20640;-72
2022/12/01 07:34:05;;;;;;;6.28;3.53;;;26.60;49.80;;;;;;4113641;28;20499;-72
2022/12/01 07:36:28;;;;;;;9.65;3.35;;;26.60;49.80;;;;;;4109551;28;20039;-72
2022/12/01 07:38:51;;;;;;;5.18;2.80;;;26.50;49.80;;;;;;4109571;28;20046;-74
2022/12/01 07:41:17;;;;;;;7.63;2.25;;;26.50;49.80;;;;;;4111139;28;20051;-74
2022/12/01 07:43:41;;;;;;;3.97;1.67;;;26.40;49.60;;;;;;4124241;28;20096;-73
2022/12/01 07:46:07;;;;;;;6.20;1.88;;;26.40;50.20;;;;;;4111927;28;20687;-73
2022/12/01 07:48:30;;;;;;;6.47;1.67;;;26.30;49.50;;;;;;4124814;28;20054;-76
2022/12/01 07:50:55;;;;;;;5.88;1.90;;;26.30;49.80;;;;;;4107827;28;20039;-73
2022/12/01 07:53:18;;;;;;;4.55;1.75;;;26.30;49.80;;;;;;4117056;28;20259;-74
2022/12/01 07:55:46;;;;;;;4.63;1.67;;;26.30;49.60;;;;;;4120112;28;20034;-72
2022/12/01 07:58:09;;;;;;;5.40;1.35;;;26.20;48.90;;;;;;4121400;28;20042;-74
2022/12/01 08:00:31;;;;;;;4.18;1.33;;;26.20;48.80;;;;;;4107140;28;20035;-74
2022/12/01 08:02:54;;;;;;;3.65;1.27;;;26.20;48.70;;;;;;4124209;28;20183;-72
2022/12/01 08:05:17;;;;;;;3.65;1.50;;;26.10;48.80;;;;;;4120982;28;20113;-72
2022/12/01 08:07:39;;;;;;;4.43;1.58;;;26.10;48.90;;;;;;4119939;28;20046;-72
2022/12/01 08:10:02;;;;;;;3.28;1.30;;;26.10;49.00;;;;;;4122590;28;20039;-73
2022/12/01 08:12:24;;;;;;;3.30;1.20;;;26.00;49.20;;;;;;4123686;28;20071;-72
2022/12/01 08:14:47;;;;;;;4.40;1.48;;;26.00;49.40;;;;;;4123921;28;20038;-72
2022/12/01 08:17:10;;;;;;;5.32;1.42;;;26.00;49.40;;;;;;4109813;28;20043;-74
2022/12/01 08:19:32;;;;;;;5.10;1.52;;;26.00;49.30;;;;;;4124605;28;20041;-73
2022/12/01 08:21:55;;;;;;;4.57;1.52;;;26.00;49.30;;;;;;4109903;28;20081;-72
2022/12/01 08:24:17;;;;;;;6.28;1.67;;;25.90;49.40;;;;;;4124945;28;20049;-73
2022/12/01 08:26:40;;;;;;;6.25;1.60;;;25.90;49.40;;;;;;4125281;28;20466;-73
2022/12/01 08:29:06;;;;;;;3.13;1.60;;;25.80;49.50;;;;;;4108652;28;20477;-72
2022/12/01 08:31:36;;;;;;;5.30;1.70;;;25.90;49.50;;;;;;4117338;28;20610;-72
2022/12/01 08:33:59;;;;;;;3.30;1.20;;;25.80;49.30;;;;;;4121701;28;20053;-73
2022/12/01 08:36:22;;;;;;;2.35;1.40;;;25.80;49.60;;;;;;4120072;28;20038;-73
2022/12/01 08:38:47;;;;;;;3.97;1.60;;;25.70;49.70;;;;;;4104235;28;20049;-73
2022/12/01 08:41:11;;;;;;;6.00;1.92;;;25.70;49.70;;;;;;4122973;28;20082;-72
2022/12/01 08:43:38;;;;;;;3.85;1.48;;;25.70;49.60;;;;;;4121464;28;20042;-72
2022/12/01 08:46:02;;;;;;;5.45;1.60;;;25.70;49.70;;;;;;4123308;28;20080;-73
2022/12/01 08:48:24;;;;;;;;;;;25.70;49.80;;;;;;4122333;28;20046;-72
2022/12/01 08:50:47;;;;;;;4.07;1.30;;;25.70;49.90;;;;;;4105465;28;19914;-72
2022/12/01 08:53:09;;;;;;;5.20;1.77;;;25.70;49.90;;;;;;4120631;28;20050;-72
2022/12/01 08:55:32;;;;;;;3.78;1.40;;;25.70;50.00;;;;;;4123196;28;20573;-73
2022/12/01 08:57:54;;;;;;;3.78;1.40;;;25.60;50.00;;;;;;4121963;28;20049;-73
2022/12/01 09:00:17;;;;;;;4.13;1.52;;;25.60;50.00;;;;;;4120521;28;20030;-74
2022/12/01 09:02:39;;;;;;;3.42;1.42;;;25.60;50.00;;;;;;4116582;28;20046;-72
2022/12/01 09:05:02;;;;;;;4.07;1.63;;;25.60;50.00;;;;;;4119734;28;20078;-72
2022/12/01 09:07:25;;;;;;;5.10;1.40;;;25.60;50.30;;;;;;4122784;28;20429;-72
2022/12/01 09:09:47;;;;;;;3.60;1.33;;;25.50;50.10;;;;;;4122526;28;20026;-73
2022/12/01 09:12:10;;;;;;;3.10;1.40;;;25.50;50.20;;;;;;4106582;28;20042;-72
2022/12/01 09:14:40;;;;;;;3.47;1.23;;;25.50;50.20;;;;;;4119436;28;20045;-72
2022/12/01 09:17:03;;;;;;;4.05;1.33;;;25.50;50.20;;;;;;4117581;28;20074;-71
2022/12/01 09:19:27;;;;;;;4.30;1.30;;;25.50;50.20;;;;;;4119830;28;20030;-73
2022/12/01 09:21:50;;;;;;;2.95;1.05;;;25.40;50.10;;;;;;4119342;28;20069;-73
2022/12/01 09:24:14;;;;;;;3.38;1.23;;;25.40;50.10;;;;;;4126253;28;20030;-73
2022/12/01 09:26:37;;;;;;;3.50;1.40;;;25.40;50.10;;;;;;4109794;28;20552;-73
2022/12/01 09:29:02;;;;;;;2.92;1.00;;;25.40;50.20;;;;;;4110727;28;20039;-71
2022/12/01 09:31:25;;;;;;;3.75;1.50;;;25.40;50.10;;;;;;4114229;28;20823;-72
2022/12/01 09:33:47;;;;;;;3.22;1.35;;;25.30;50.20;;;;;;4109522;28;20070;-73
2022/12/01 09:36:11;;;;;;;3.47;1.20;;;25.40;50.20;;;;;;4107594;28;20042;-74
2022/12/01 09:38:35;;;;;;;3.30;1.10;;;25.30;50.20;;;;;;4107185;28;20052;-74
2022/12/01 09:41:15;;;;;;;4.68;1.92;;;25.30;50.30;;;;;;4108745;28;20050;-73
2022/12/01 09:43:55;;;;;;;2.85;1.13;;;25.30;50.30;;;;;;4109921;28;20058;-72
2022/12/01 09:46:26;;;;;;;3.45;1.20;;;25.30;50.40;;;;;;4114926;28;20042;-73
2022/12/01 09:48:52;;;;;;;3.10;1.20;;;25.20;50.40;;;;;;4110033;28;20046;-73
2022/12/01 09:51:15;;;;;;;2.70;1.00;;;25.20;50.50;;;;;;4114112;28;20042;-73
2022/12/01 09:53:37;;;;;;;4.88;1.50;;;25.20;50.50;;;;;;4109232;28;20448;-73
2022/12/01 09:56:00;;;;;;;5.25;1.50;;;25.20;50.60;;;;;;4107467;28;20538;-73
2022/12/01 09:58:29;;;;;;;3.97;1.45;;;25.10;50.50;;;;;;4109665;28;20039;-73
2022/12/01 10:00:55;;;;;;;3.25;1.40;;;25.10;50.50;;;;;;4111312;28;20038;-73
2022/12/01 10:03:45;;;;;;;3.47;1.15;;;25.10;50.60;;;;;;4112305;28;20702;-73
2022/12/01 10:06:19;;;;;;;3.00;1.42;;;25.10;50.70;;;;;;4109663;28;20105;-74
2022/12/01 10:08:50;;;;;;;3.28;1.48;;;25.10;50.70;;;;;;4101227;28;20046;-73
2022/12/01 10:11:35;;;;;;;2.42;1.10;;;25.10;50.70;;;;;;4116705;28;20043;-73
2022/12/01 10:13:59;;;;;;;4.00;1.60;;;25.00;50.70;;;;;;4109299;28;20085;-73
2022/12/01 10:16:29;;;;;;;;;;;25.00;50.70;;;;;;4111463;28;20173;-73
2022/12/01 10:19:04;;;;;;;3.78;1.00;;;25.00;50.80;;;;;;4111890;28;19910;-72
2022/12/01 10:21:39;;;;;;;3.25;1.25;;;25.00;50.80;;;;;;4108636;28;20042;-69
2022/12/01 10:24:37;;;;;;;4.15;1.10;;;25.00;50.80;;;;;;4111210;28;20088;-70
2022/12/01 10:27:20;;;;;;;4.20;1.20;;;24.90;50.80;;;;;;4108673;28;20046;-70
2022/12/01 10:29:47;;;;;;;3.10;1.27;;;24.90;50.80;;;;;;4111726;28;20458;-69
2022/12/01 10:32:22;;;;;;;3.97;1.35;;;24.90;50.80;;;;;;4111606;28;20152;-69
2022/12/01 10:34:46;;;;;;;2.40;0.93;;;24.90;50.80;;;;;;4111179;28;20035;-69
2022/12/01 10:37:19;;;;;;;3.80;1.52;;;24.80;50.80;;;;;;4110538;28;20042;-69
2022/12/01 10:39:46;;;;;;;2.88;1.33;;;24.80;50.80;;;;;;4109093;28;20473;-69
2022/12/01 10:42:17;;;;;;;2.88;1.30;;;24.80;50.80;;;;;;4109757;28;20046;-76
2022/12/01 10:44:40;;;;;;;4.28;1.50;;;24.80;50.90;;;;;;4107751;28;20034;-75
2022/12/01 10:47:03;;;;;;;5.85;1.77;;;24.80;51.30;;;;;;4106721;28;20046;-79
2022/12/01 10:49:40;;;;;;;3.80;1.38;;;24.80;51.50;;;;;;4112456;28;20054;-73
2022/12/01 10:52:03;;;;;;;5.43;1.60;;;24.80;51.80;;;;;;4113482;28;20035;-73
2022/12/01 10:54:38;;;;;;;5.13;1.38;;;24.80;51.30;;;;;;4113496;28;20054;-73
2022/12/01 10:57:02;;;;;;;5.05;1.60;;;24.80;51.10;;;;;;4110596;28;20042;-74
2022/12/01 10:59:26;;;;;;;;;;;24.80;51.00;;;;;;4109497;28;20042;-74
2022/12/01 11:01:49;;;;;;;5.45;1.67;;;24.70;51.90;;;;;;4110050;28;21284;-75
2022/12/01 11:04:35;;;;;;;4.10;1.30;;;24.80;52.50;;;;;;4110558;28;20043;-74
2022/12/01 11:06:58;;;;;;;5.10;1.40;;;24.80;52.90;;;;;;4108475;28;20054;-75
2022/12/01 11:09:25;;;;;;;2.13;1.05;;;24.80;53.50;;;;;;4107026;28;20759;-77
2022/12/01 11:11:59;;;;;;;5.03;1.38;;;24.80;53.20;;;;;;4112031;28;20092;-77
2022/12/01 11:14:24;;;;;;;6.07;1.40;;;24.80;53.40;;;;;;4106439;28;20163;-75
2022/12/01 11:16:51;;;;;;;4.38;1.10;;;24.80;53.50;;;;;;4108024;28;20066;-76
2022/12/01 11:19:34;;;;;;;5.65;1.42;;;24.80;53.50;;;;;;4110550;28;20098;-74
2022/12/01 11:21:59;;;;;;;4.55;1.05;;;24.80;53.60;;;;;;4106072;28;20039;-75
2022/12/01 11:24:45;;;;;;;2.50;0.82;;;24.80;53.60;;;;;;4114398;28;20110;-75
2022/12/01 11:27:20;;;;;;;4.35;1.00;;;24.80;53.70;;;;;;4127040;28;20050;-73
2022/12/01 11:29:42;;;;;;;4.93;1.08;;;24.80;53.70;;;;;;4124652;28;20535;-75
2022/12/01 11:32:19;;;;;;;1.73;0.90;;;24.80;53.50;;;;;;4127151;28;20035;-74
2022/12/01 11:34:48;;;;;;;9.93;1.48;;;24.80;53.60;;;;;;4124329;28;20113;-74
2022/12/01 11:37:17;;;;;;;7.53;1.42;;;24.80;53.70;;;;;;4123135;28;20035;-75
2022/12/01 11:39:44;;;;;;;12.02;1.88;;;24.80;53.70;;;;;;4108893;28;20453;-74
2022/12/01 11:42:27;;;;;;;10.57;1.38;;;24.70;53.90;;;;;;4122766;28;20038;-75
2022/12/01 11:44:56;;;;;;;4.78;0.95;;;24.60;54.20;;;;;;4131293;28;20042;-76
2022/12/01 11:47:21;;;;;;;3.58;1.05;;;24.60;54.40;;;;;;4125947;28;20050;-73
2022/12/01 11:49:47;;;;;;;4.25;1.00;;;24.50;55.20;;;;;;4114324;28;20034;-77
2022/12/01 11:52:44;;;;;;;2.05;1.02;;;24.50;54.70;;;;;;4110796;28;20093;-75
2022/12/01 11:55:13;;;;;;;1.77;0.63;;;24.40;54.80;;;;;;4114863;28;20030;-74
2022/12/01 11:57:35;;;;;;;3.50;0.93;;;24.40;54.80;;;;;;4105230;28;20232;-74
2022/12/01 11:59:58;;;;;;;4.57;1.00;;;24.40;54.90;;;;;;4122876;28;20460;-73
2022/12/01 12:02:38;;;;;;;3.88;1.00;;;24.40;55.00;;;;;;4111505;28;20804;-74
2022/12/01 12:05:12;;;;;;;3.85;1.00;;;24.40;55.10;;;;;;4108248;28;20043;-74
2022/12/01 12:07:44;;;;;;;4.43;1.25;;;24.40;55.20;;;;;;4123711;28;20051;-76
2022/12/01 12:10:37;;;;;;;5.78;0.88;;;24.40;55.10;;;;;;4106831;28;20035;-74
2022/12/01 12:13:14;;;;;;;3.05;0.80;;;24.40;55.30;;;;;;4124187;28;20061;-74
2022/12/01 12:16:05;;;;;;;3.28;0.70;;;24.40;55.20;;;;;;4109148;28;20038;-74
2022/12/01 12:18:39;;;;;;;3.10;1.00;;;24.30;55.10;;;;;;4113212;28;20441;-74
2022/12/01 12:21:19;;;;;;;3.72;0.70;;;24.40;55.20;;;;;;4123765;28;20106;-75
2022/12/01 12:23:54;;;;;;;4.03;0.85;;;24.30;55.10;;;;;;4120717;28;20046;-75
2022/12/01 12:26:29;;;;;;;3.53;1.02;;;24.30;55.20;;;;;;4124259;28;20061;-76
2022/12/01 12:28:55;;;;;;;4.55;0.82;;;24.30;55.20;;;;;;4116117;28;20046;-76
2022/12/01 12:31:28;;;;;;;3.38;1.10;;;24.30;55.30;;;;;;4110701;28;20228;-77
2022/12/01 12:34:15;;;;;;;1.50;0.70;;;24.30;55.30;;;;;;4113926;28;20054;-75
2022/12/01 12:36:53;;;;;;;5.50;0.90;;;24.30;55.30;;;;;;4115416;28;20410;-74
2022/12/01 12:39:31;;;;;;;6.05;1.10;;;24.30;55.50;;;;;;4119370;28;20050;-75
2022/12/01 12:41:55;;;;;;;4.00;1.20;;;24.20;55.40;;;;;;4122657;28;20540;-74
2022/12/01 12:44:29;;;;;;;7.88;1.63;;;24.30;55.50;;;;;;4111621;28;20047;-74
2022/12/01 12:46:58;;;;;;;9.65;1.30;;;24.30;55.50;;;;;;4110743;28;20117;-75
2022/12/01 12:49:31;;;;;;;5.78;1.13;;;24.30;55.50;;;;;;4111770;28;20478;-75
2022/12/01 12:52:09;;;;;;;4.72;0.80;;;24.30;55.50;;;;;;4120327;28;20045;-75
2022/12/01 12:55:04;;;;;;;3.60;0.93;;;24.30;55.60;;;;;;4124794;28;20038;-75
2022/12/01 12:57:46;;;;;;;7.97;1.10;;;24.20;55.50;;;;;;4122416;28;20046;-74
2022/12/01 13:00:25;;;;;;;3.65;1.08;;;24.20;55.60;;;;;;4124583;28;20048;-75